createdAt,value
2018-12-27T00:00:06.808Z,98495.31
2018-12-27T00:02:56.701Z,98500.72
2018-12-27T00:05:46.580Z,98495.56
2018-12-27T00:08:36.436Z,98495.28
2018-12-27T00:11:26.300Z,98482.23
2018-12-27T00:14:16.161Z,98486.64
2018-12-27T00:17:05.987Z,98487.39
2018-12-27T00:19:48.739Z,98487.70
2018-12-27T00:22:38.515Z,98493.20
2018-12-27T00:25:47.237Z,98475.64
2018-12-27T00:28:37.048Z,98484.45
2018-12-27T00:31:26.942Z,98480.83
2018-12-27T00:34:24.346Z,98477.79
2018-12-27T00:37:14.493Z,98467.47
2018-12-27T00:40:04.432Z,98466.26
2018-12-27T00:42:54.568Z,98462.05
2018-12-27T00:45:44.446Z,98457.26
2018-12-27T00:48:34.603Z,98455.99
2018-12-27T00:51:24.494Z,98461.13
2018-12-27T00:54:15.012Z,98447.80
2018-12-27T00:57:05.275Z,98452.56
2018-12-27T00:59:55.157Z,98449.86
2018-12-27T01:02:45.058Z,98448.25
2018-12-27T01:05:35.086Z,98450.95
2018-12-27T01:08:43.938Z,98453.33
2018-12-27T01:11:34.192Z,98445.08
2018-12-27T01:14:24.109Z,98443.44
2018-12-27T01:17:14.020Z,98439.35
2018-12-27T01:19:56.619Z,98441.09
2018-12-27T01:22:46.845Z,98432.28
2018-12-27T01:25:37.115Z,98435.63
2018-12-27T01:28:26.999Z,98433.06
2018-12-27T01:31:17.264Z,98432.84
2018-12-27T01:34:07.156Z,98430.21
2018-12-27T01:36:57.123Z,98432.23
2018-12-27T01:40:06.072Z,98431.37
2018-12-27T01:42:55.978Z,98426.57
2018-12-27T01:48:54.974Z,98429.91
2018-12-27T01:51:44.875Z,98424.48
2018-12-27T01:54:35.130Z,98424.48
2018-12-27T01:57:25.030Z,98426.82
2018-12-27T02:00:15.343Z,98422.74
2018-12-27T02:03:05.240Z,98421.63
2018-12-27T02:05:55.128Z,98418.33
2018-12-27T02:08:45.370Z,98421.95
2018-12-27T02:11:35.268Z,98408.48
2018-12-27T02:14:25.547Z,98418.45
2018-12-27T02:17:15.430Z,98419.93
2018-12-27T02:19:57.846Z,98408.77
2018-12-27T02:22:48.008Z,98409.19
2018-12-27T02:25:38.183Z,98405.83
2018-12-27T02:28:28.054Z,98401.81
2018-12-27T02:31:37.362Z,98394.83
2018-12-27T02:34:27.245Z,98395.10
2018-12-27T02:37:17.202Z,98382.84
2018-12-27T02:40:07.097Z,98394.40
2018-12-27T02:42:57.001Z,98391.58
2018-12-27T02:45:46.903Z,98380.56
2018-12-27T02:48:55.778Z,98388.55
2018-12-27T02:51:45.658Z,98384.97
2018-12-27T02:54:35.905Z,98386.03
2018-12-27T02:57:44.763Z,98385.13
2018-12-27T03:00:34.676Z,98390.61
2018-12-27T03:03:24.818Z,98374.54
2018-12-27T03:06:14.742Z,98370.26
2018-12-27T03:09:05.499Z,98372.57
2018-12-27T03:11:55.393Z,98378.34
2018-12-27T03:14:45.311Z,98371.38
2018-12-27T03:17:35.278Z,98375.45
2018-12-27T03:20:17.643Z,98370.34
2018-12-27T03:23:07.562Z,98367.58
2018-12-27T03:25:57.481Z,98369.88
2018-12-27T03:28:47.919Z,98374.75
2018-12-27T03:31:37.812Z,98367.64
2018-12-27T03:37:23.552Z,98359.79
2018-12-27T03:40:13.437Z,98350.97
2018-12-27T03:43:03.344Z,98348.84
2018-12-27T03:45:53.220Z,98356.30
2018-12-27T03:48:43.107Z,98345.97
2018-12-27T03:51:33.069Z,98351.99
2018-12-27T03:54:23.331Z,98352.64
2018-12-27T03:57:13.229Z,98338.19
2018-12-27T04:00:03.403Z,98353.90
2018-12-27T04:02:53.301Z,98355.78
2018-12-27T04:05:43.190Z,98353.48
2018-12-27T04:08:33.447Z,98348.20
2018-12-27T04:11:23.750Z,98336.16
2018-12-27T04:14:13.759Z,98356.88
2018-12-27T04:17:03.537Z,98357.98
2018-12-27T04:19:46.060Z,98359.47
2018-12-27T04:22:36.010Z,98356.78
2018-12-27T04:28:41.953Z,98356.78
2018-12-27T04:31:50.857Z,98354.37
2018-12-27T04:37:56.947Z,98345.14
2018-12-27T04:40:46.721Z,98339.54
2018-12-27T04:47:05.739Z,98334.69
2018-12-27T04:49:55.602Z,98331.67
2018-12-27T04:52:45.377Z,98328.67
2018-12-27T04:55:35.197Z,98328.83
2018-12-27T04:58:24.980Z,98325.06
2018-12-27T05:01:14.833Z,98317.92
2018-12-27T05:04:04.649Z,98316.50
2018-12-27T05:06:54.450Z,98325.92
2018-12-27T05:09:44.227Z,98318.14
2018-12-27T05:12:34.110Z,98309.48
2018-12-27T05:15:23.900Z,98317.06
2018-12-27T05:18:13.680Z,98320.95
2018-12-27T05:20:56.155Z,98317.30
2018-12-27T05:23:45.924Z,98323.48
2018-12-27T05:26:35.757Z,98317.84
2018-12-27T05:29:25.515Z,98323.75
2018-12-27T05:32:15.272Z,98325.34
2018-12-27T05:38:13.857Z,98320.69
2018-12-27T05:41:03.618Z,98318.88
2018-12-27T05:43:53.382Z,98316.57
2018-12-27T05:46:43.198Z,98327.42
2018-12-27T05:49:33.022Z,98329.06
2018-12-27T05:52:22.805Z,98329.03
2018-12-27T05:55:12.656Z,98328.11
2018-12-27T05:58:02.537Z,98328.66
2018-12-27T06:00:52.327Z,98326.38
2018-12-27T06:03:42.100Z,98330.61
2018-12-27T06:09:40.586Z,98329.89
2018-12-27T06:12:30.512Z,98318.72
2018-12-27T06:15:20.266Z,98325.18
2018-12-27T06:18:10.179Z,98322.99
2018-12-27T06:20:53.091Z,98326.78
2018-12-27T06:23:43.078Z,98333.72
2018-12-27T06:26:32.847Z,98335.09
2018-12-27T06:29:22.695Z,98329.00
2018-12-27T06:32:12.469Z,98338.87
2018-12-27T06:35:02.234Z,98331.77
2018-12-27T06:37:52.008Z,98329.52
2018-12-27T06:40:41.964Z,98325.59
2018-12-27T06:43:31.744Z,98327.73
2018-12-27T06:46:21.495Z,98331.16
2018-12-27T06:49:11.364Z,98333.68
2018-12-27T06:52:01.185Z,98332.05
2018-12-27T06:54:50.990Z,98330.88
2018-12-27T06:57:40.780Z,98335.29
2018-12-27T07:00:30.765Z,98326.06
2018-12-27T07:03:20.642Z,98329.34
2018-12-27T07:06:10.670Z,98333.38
2018-12-27T07:09:00.483Z,98322.82
2018-12-27T07:11:50.228Z,98316.13
2018-12-27T07:14:40.185Z,98320.09
2018-12-27T07:17:49.034Z,98329.31
2018-12-27T07:20:31.975Z,98326.27
2018-12-27T07:26:30.419Z,98317.16
2018-12-27T07:29:20.283Z,98307.55
2018-12-27T07:32:10.030Z,98321.90
2018-12-27T07:37:54.969Z,98315.58
2018-12-27T07:40:44.727Z,98318.63
2018-12-27T07:43:34.503Z,98320.22
2018-12-27T07:49:38.661Z,98331.97
2018-12-27T07:52:28.545Z,98332.66
2018-12-27T07:55:18.458Z,98328.73
2018-12-27T07:58:08.238Z,98324.42
2018-12-27T08:01:16.752Z,98326.85
2018-12-27T08:04:06.581Z,98334.23
2018-12-27T08:06:56.448Z,98317.48
2018-12-27T08:09:46.674Z,98327.05
2018-12-27T08:12:36.826Z,98320.45
2018-12-27T08:15:26.609Z,98313.38
2018-12-27T08:18:16.405Z,98310.67
2018-12-27T08:20:58.721Z,98315.21
2018-12-27T08:23:48.509Z,98316.58
2018-12-27T08:26:38.660Z,98312.55
2018-12-27T08:29:28.436Z,98307.88
2018-12-27T08:32:18.386Z,98316.45
2018-12-27T08:35:11.673Z,98316.26
2018-12-27T08:38:00.107Z,98319.77
2018-12-27T08:40:49.870Z,98318.45
2018-12-27T08:46:48.284Z,98314.94
2018-12-27T08:49:38.035Z,98312.52
2018-12-27T08:52:27.834Z,98310.75
2018-12-27T08:55:17.755Z,98304.70
2018-12-27T08:58:06.957Z,98297.49
2018-12-27T09:00:56.173Z,98305.64
2018-12-27T09:03:46.049Z,98299.88
2018-12-27T09:06:35.943Z,98302.78
2018-12-27T09:09:26.037Z,98305.77
2018-12-27T09:12:15.802Z,98297.58
2018-12-27T09:15:05.726Z,98295.85
2018-12-27T09:17:55.520Z,98302.83
2018-12-27T09:20:38.481Z,98281.00
2018-12-27T09:23:28.266Z,98285.30
2018-12-27T09:26:18.129Z,98283.91
2018-12-27T09:29:07.922Z,98287.05
2018-12-27T09:31:57.711Z,98286.05
2018-12-27T09:34:47.686Z,98282.66
2018-12-27T09:37:37.493Z,98288.36
2018-12-27T09:40:27.571Z,98292.70
2018-12-27T09:43:17.352Z,98287.79
2018-12-27T09:46:07.223Z,98282.47
2018-12-27T09:48:57.355Z,98276.84
2018-12-27T09:51:47.129Z,98271.48
2018-12-27T09:54:36.872Z,98272.22
2018-12-27T09:57:26.706Z,98261.19
2018-12-27T10:00:16.580Z,98266.73
2018-12-27T10:03:06.346Z,98261.70
2018-12-27T10:05:56.372Z,98261.55
2018-12-27T10:08:46.310Z,98255.53
2018-12-27T10:11:36.079Z,98250.16
2018-12-27T10:14:25.926Z,98242.38
2018-12-27T10:17:15.680Z,98237.09
2018-12-27T10:20:05.751Z,98242.96
2018-12-27T10:22:55.849Z,98237.09
2018-12-27T10:25:45.593Z,98232.69
2018-12-27T10:28:35.351Z,98230.83
2018-12-27T10:31:25.395Z,98223.00
2018-12-27T10:34:15.244Z,98226.33
2018-12-27T10:40:00.534Z,98221.98
2018-12-27T10:42:50.395Z,98217.14
2018-12-27T10:45:40.561Z,98210.61
2018-12-27T10:48:30.345Z,98209.72
2018-12-27T10:54:28.803Z,98197.47
2018-12-27T11:00:27.305Z,98188.00
2018-12-27T11:03:17.353Z,98170.84
2018-12-27T11:09:15.901Z,98159.82
2018-12-27T11:12:05.869Z,98152.42
2018-12-27T11:17:51.660Z,98140.42
2018-12-27T11:20:34.713Z,98136.41
2018-12-27T11:23:24.499Z,98146.84
2018-12-27T11:25:55.194Z,98144.43
2018-12-27T11:28:26.196Z,98140.80
2018-12-27T11:30:58.106Z,98135.44
2018-12-27T11:33:29.036Z,98135.34
2018-12-27T11:35:59.788Z,98119.43
2018-12-27T11:38:30.560Z,98119.63
2018-12-27T11:41:01.221Z,98117.77
2018-12-27T11:43:32.013Z,98118.84
2018-12-27T11:46:02.696Z,98107.77
2018-12-27T11:48:33.475Z,98112.72
2018-12-27T11:51:04.147Z,98107.64
2018-12-27T11:53:35.086Z,98105.73
2018-12-27T11:56:05.989Z,98098.34
2018-12-27T11:58:36.633Z,98100.47
2018-12-27T12:01:07.491Z,98095.29
2018-12-27T12:03:38.570Z,98096.64
2018-12-27T12:06:09.543Z,98098.27
2018-12-27T12:08:40.522Z,98106.11
2018-12-27T12:11:11.191Z,98096.01
2018-12-27T12:13:42.023Z,98098.21
2018-12-27T12:16:12.678Z,98109.00
2018-12-27T12:18:43.486Z,98102.54
2018-12-27T12:21:14.256Z,98087.53
2018-12-27T12:23:45.059Z,98101.41
2018-12-27T12:26:15.737Z,98093.16
2018-12-27T12:28:46.464Z,98100.94
2018-12-27T12:31:17.295Z,98100.89
2018-12-27T12:33:48.367Z,98091.89
2018-12-27T12:36:19.448Z,98086.13
2018-12-27T12:38:50.543Z,98095.51
2018-12-27T12:41:21.394Z,98090.67
2018-12-27T12:43:52.327Z,98088.55
2018-12-27T12:46:23.001Z,98088.50
2018-12-27T12:48:53.874Z,98093.33
2018-12-27T12:51:24.696Z,98089.82
2018-12-27T12:53:55.533Z,98094.34
2018-12-27T12:56:26.316Z,98086.84
2018-12-27T12:58:57.412Z,98081.48
2018-12-27T13:01:28.347Z,98083.75
2018-12-27T13:03:59.027Z,98080.60
2018-12-27T13:06:29.890Z,98082.45
2018-12-27T13:09:00.734Z,98088.92
2018-12-27T13:11:31.463Z,98086.11
2018-12-27T13:14:02.149Z,98079.78
2018-12-27T13:16:32.846Z,98078.38
2018-12-27T13:19:03.941Z,98075.83
2018-12-27T13:21:34.688Z,98063.94
2018-12-27T13:24:05.687Z,98066.97
2018-12-27T13:26:36.710Z,98065.66
2018-12-27T13:29:07.458Z,98066.61
2018-12-27T13:31:38.359Z,98057.07
2018-12-27T13:34:09.156Z,98062.41
2018-12-27T13:36:39.974Z,98065.48
2018-12-27T13:39:10.641Z,98054.74
2018-12-27T13:41:41.389Z,98064.13
2018-12-27T13:44:12.079Z,98059.24
2018-12-27T13:46:42.742Z,98057.28
2018-12-27T13:49:13.378Z,98053.79
2018-12-27T13:51:44.525Z,98043.47
2018-12-27T13:54:15.234Z,98045.85
2018-12-27T13:56:45.986Z,98035.88
2018-12-27T13:59:16.730Z,98048.22
2018-12-27T14:01:47.458Z,98045.02
2018-12-27T14:04:18.200Z,98043.93
2018-12-27T14:06:48.889Z,98038.48
2018-12-27T14:09:19.610Z,98039.51
2018-12-27T14:11:50.334Z,98040.86
2018-12-27T14:14:21.508Z,98045.94
2018-12-27T14:16:52.318Z,98046.32
2018-12-27T14:19:23.017Z,98050.84
2018-12-27T14:21:53.697Z,98047.95
2018-12-27T14:24:24.685Z,98048.28
2018-12-27T14:26:55.718Z,98055.55
2018-12-27T14:29:26.338Z,98050.17
2018-12-27T14:31:57.359Z,98054.11
2018-12-27T14:34:28.037Z,98052.42
2018-12-27T14:36:59.002Z,98040.06
2018-12-27T14:39:29.717Z,98049.23
2018-12-27T14:42:00.500Z,98046.70
2018-12-27T14:44:31.252Z,98043.50
2018-12-27T14:47:01.996Z,98043.00
2018-12-27T14:49:32.827Z,98045.75
2018-12-27T14:52:03.526Z,98042.41
2018-12-27T14:54:34.367Z,98035.41
2018-12-27T14:57:05.523Z,98033.85
2018-12-27T14:59:36.226Z,98034.74
2018-12-27T15:02:07.368Z,98031.71
2018-12-27T15:04:38.107Z,98031.04
2018-12-27T15:07:09.040Z,98030.36
2018-12-27T15:09:39.790Z,98032.98
2018-12-27T15:12:10.731Z,98030.62
2018-12-27T15:14:41.480Z,98028.47
2018-12-27T15:17:12.156Z,98032.55
2018-12-27T15:19:43.203Z,98030.61
2018-12-27T15:22:13.949Z,98036.33
2018-12-27T15:24:44.647Z,98040.97
2018-12-27T15:27:15.369Z,98034.54
2018-12-27T15:29:46.284Z,98028.79
2018-12-27T15:32:17.006Z,98034.52
2018-12-27T15:34:47.659Z,98030.81
2018-12-27T15:37:18.377Z,98030.12
2018-12-27T15:39:49.113Z,98024.09
2018-12-27T15:42:19.960Z,98013.47
2018-12-27T15:44:50.642Z,98020.77
2018-12-27T15:47:21.516Z,98022.03
2018-12-27T15:49:52.207Z,98015.31
2018-12-27T15:52:23.182Z,98021.42
2018-12-27T15:54:53.997Z,98020.45
2018-12-27T15:57:24.826Z,98029.12
2018-12-27T15:59:55.841Z,98020.89
2018-12-27T16:02:26.488Z,98023.66
2018-12-27T16:04:57.236Z,98024.26
2018-12-27T16:07:28.218Z,98025.61
2018-12-27T16:09:58.969Z,98028.66
2018-12-27T16:12:29.733Z,98034.49
2018-12-27T16:15:00.462Z,98027.48
2018-12-27T16:17:31.752Z,98029.73
2018-12-27T16:20:02.955Z,98032.55
2018-12-27T16:22:33.640Z,98029.34
2018-12-27T16:25:04.599Z,98035.77
2018-12-27T16:27:35.320Z,98034.63
2018-12-27T16:30:06.686Z,98035.39
2018-12-27T16:32:37.437Z,98029.86
2018-12-27T16:35:08.360Z,98030.83
2018-12-27T16:37:39.355Z,98033.74
2018-12-27T16:40:10.555Z,98018.16
2018-12-27T16:42:41.363Z,98026.13
2018-12-27T16:45:12.130Z,98035.08
2018-12-27T16:47:43.218Z,98030.32
2018-12-27T16:50:13.958Z,98031.88
2018-12-27T16:52:44.878Z,98034.04
2018-12-27T16:55:15.573Z,98030.53
2018-12-27T16:57:46.231Z,98030.16
2018-12-27T17:00:17.062Z,98035.77
2018-12-27T17:02:47.831Z,98041.55
2018-12-27T17:05:18.589Z,98038.00
2018-12-27T17:07:49.344Z,98035.30
2018-12-27T17:10:20.103Z,98028.25
2018-12-27T17:12:50.757Z,98038.12
2018-12-27T17:15:21.492Z,98027.99
2018-12-27T17:17:52.264Z,98033.73
2018-12-27T17:20:23.305Z,98026.82
2018-12-27T17:22:54.053Z,98030.11
2018-12-27T17:25:25.139Z,98031.12
2018-12-27T17:27:55.789Z,98024.79
2018-12-27T17:30:26.627Z,98019.43
2018-12-27T17:32:57.600Z,98021.17
2018-12-27T17:35:28.281Z,98021.08
2018-12-27T17:37:59.020Z,98021.88
2018-12-27T17:40:29.791Z,98013.69
2018-12-27T17:43:00.759Z,98026.95
2018-12-27T17:45:31.534Z,98011.63
2018-12-27T17:48:02.223Z,98015.34
2018-12-27T17:50:33.777Z,98016.10
2018-12-27T17:53:04.546Z,98020.91
2018-12-27T17:55:35.288Z,98022.34
2018-12-27T17:58:06.103Z,98017.69
2018-12-27T18:00:36.875Z,98022.77
2018-12-27T18:03:07.549Z,98017.02
2018-12-27T18:05:38.291Z,98016.59
2018-12-27T18:08:09.123Z,98021.20
2018-12-27T18:10:39.924Z,98020.91
2018-12-27T18:13:10.608Z,98019.52
2018-12-27T18:15:41.699Z,98020.11
2018-12-27T18:18:12.356Z,98025.91
2018-12-27T18:20:43.043Z,98023.69
2018-12-27T18:23:13.970Z,98027.58
2018-12-27T18:25:44.753Z,98030.23
2018-12-27T18:28:15.522Z,98029.65
2018-12-27T18:30:46.393Z,98029.64
2018-12-27T18:33:17.418Z,98037.45
2018-12-27T18:35:48.155Z,98025.27
2018-12-27T18:38:38.593Z,98036.04
2018-12-27T18:41:09.334Z,98035.36
2018-12-27T18:43:40.090Z,98037.78
2018-12-27T18:46:10.907Z,98039.94
2018-12-27T18:48:41.944Z,98039.48
2018-12-27T18:51:12.629Z,98032.64
2018-12-27T18:53:43.397Z,98039.95
2018-12-27T18:56:14.169Z,98037.25
2018-12-27T18:58:44.859Z,98038.89
2018-12-27T19:01:15.644Z,98038.89
2018-12-27T19:03:46.808Z,98044.94
2018-12-27T19:06:17.499Z,98041.55
2018-12-27T19:08:48.258Z,98042.02
2018-12-27T19:12:12.520Z,98038.34
2018-12-27T19:14:43.350Z,98030.92
2018-12-27T19:17:30.354Z,98033.75
2018-12-27T19:20:01.021Z,98031.04
2018-12-27T19:22:53.442Z,98032.19
2018-12-27T19:25:24.124Z,98028.59
2018-12-27T19:27:54.941Z,98020.78
2018-12-27T19:30:25.700Z,98019.80
2018-12-27T19:32:56.429Z,98027.66
2018-12-27T19:35:27.113Z,98037.89
2018-12-27T19:37:57.785Z,98059.22
2018-12-27T19:40:28.874Z,98055.64
2018-12-27T19:42:59.865Z,98053.31
2018-12-27T19:45:30.612Z,98059.41
2018-12-27T19:48:01.351Z,98055.30
2018-12-27T19:50:32.278Z,98063.02
2018-12-27T19:53:03.458Z,98056.81
2018-12-27T19:55:34.204Z,98049.89
2018-12-27T19:58:04.967Z,98043.27
2018-12-27T20:00:35.710Z,98047.41
2018-12-27T20:03:06.531Z,98058.30
2018-12-27T20:05:37.398Z,98050.03
2018-12-27T20:08:08.490Z,98045.85
2018-12-27T20:10:39.360Z,98050.84
2018-12-27T20:13:10.127Z,98054.28
2018-12-27T20:15:40.860Z,98051.45
2018-12-27T20:18:11.589Z,98039.76
2018-12-27T20:20:42.295Z,98048.63
2018-12-27T20:23:13.032Z,98045.56
2018-12-27T20:25:43.945Z,98047.72
2018-12-27T20:28:15.566Z,98047.83
2018-12-27T20:30:46.516Z,98052.05
2018-12-27T20:33:17.739Z,98045.30
2018-12-27T20:35:48.426Z,98040.20
2018-12-27T20:38:19.097Z,98049.36
2018-12-27T20:40:49.770Z,98060.13
2018-12-27T20:43:20.489Z,98057.42
2018-12-27T20:45:51.301Z,98051.02
2018-12-27T20:48:21.946Z,98039.34
2018-12-27T20:50:52.714Z,98038.97
2018-12-27T20:53:23.360Z,98029.94
2018-12-27T20:55:54.287Z,98026.44
2018-12-27T20:58:24.946Z,98030.70
2018-12-27T21:00:55.618Z,98040.95
2018-12-27T21:03:26.431Z,98026.20
2018-12-27T21:05:57.359Z,98024.14
2018-12-27T21:08:28.108Z,98010.89
2018-12-27T21:10:58.785Z,98021.14
2018-12-27T21:13:29.570Z,98022.88
2018-12-27T21:16:00.384Z,98016.06
2018-12-27T21:18:31.029Z,98014.19
2018-12-27T21:21:02.043Z,98031.02
2018-12-27T21:23:32.700Z,98019.95
2018-12-27T21:26:03.639Z,98020.63
2018-12-27T21:28:34.285Z,98029.71
2018-12-27T21:31:05.103Z,98016.82
2018-12-27T21:33:35.774Z,98020.02
2018-12-27T21:36:06.869Z,98023.91
2018-12-27T21:38:37.880Z,98023.34
2018-12-27T21:41:08.668Z,98025.03
2018-12-27T21:43:39.890Z,98019.18
2018-12-27T21:46:10.906Z,98023.19
2018-12-27T21:48:41.561Z,98015.41
2018-12-27T21:51:12.274Z,98013.61
2018-12-27T21:53:43.169Z,98017.42
2018-12-27T21:56:13.989Z,98015.66
2018-12-27T21:58:44.640Z,98009.93
2018-12-27T22:01:15.748Z,98012.97
2018-12-27T22:03:46.428Z,98007.02
2018-12-27T22:06:17.249Z,98006.43
2018-12-27T22:08:47.951Z,98007.02
2018-12-27T22:11:18.693Z,97995.84
2018-12-27T22:13:49.438Z,97997.87
2018-12-27T22:16:20.287Z,97986.47
2018-12-27T22:18:50.958Z,97997.08
2018-12-27T22:21:21.978Z,98005.14
2018-12-27T22:23:52.660Z,97997.02
2018-12-27T22:26:23.920Z,97994.63
2018-12-27T22:28:54.959Z,97991.91
2018-12-27T22:31:25.735Z,97985.69
2018-12-27T22:33:56.465Z,97982.34
2018-12-27T22:36:27.171Z,97984.30
2018-12-27T22:38:57.876Z,97993.47
2018-12-27T22:41:28.539Z,97990.66
2018-12-27T22:43:59.271Z,97991.34
2018-12-27T22:46:30.005Z,97982.41
2018-12-27T22:49:00.690Z,97997.89
2018-12-27T22:51:31.619Z,97982.81
2018-12-27T22:54:02.383Z,97996.95
2018-12-27T22:56:33.042Z,98000.66
2018-12-27T22:59:03.859Z,97992.48
2018-12-27T23:01:34.738Z,97999.35
2018-12-27T23:04:05.483Z,97990.09
2018-12-27T23:06:36.483Z,98002.19
2018-12-27T23:09:08.708Z,97998.39
2018-12-27T23:11:39.442Z,97995.28
2018-12-27T23:14:10.175Z,97996.07
2018-12-27T23:16:41.099Z,97987.03
2018-12-27T23:19:11.762Z,97996.13
2018-12-27T23:21:42.455Z,97998.73
2018-12-27T23:24:13.357Z,97996.29
2018-12-27T23:26:44.108Z,97994.05
2018-12-27T23:29:15.095Z,97990.39
2018-12-27T23:31:45.924Z,97993.81
2018-12-27T23:34:16.846Z,97988.82
2018-12-27T23:36:47.537Z,97991.14
2018-12-27T23:39:18.465Z,97991.42
2018-12-27T23:41:49.136Z,97991.17
2018-12-27T23:44:19.900Z,97978.89
2018-12-27T23:46:50.727Z,97979.17
2018-12-27T23:49:21.413Z,97967.98
2018-12-27T23:51:52.354Z,97977.14
2018-12-27T23:54:23.019Z,97991.16
2018-12-27T23:56:53.790Z,97986.66
2018-12-27T23:59:24.479Z,97991.67
